Time;durP1;ratioP1;P1;durP2;ratioP2;P2;SDS_P1;SDS_P2;PMS_P1;PMS_P2;Temp;Humidity;BMP_temperature;BMP_pressure;BME280_temperature;BME280_humidity;BME280_pressure;Samples;Min_cycle;Max_cycle;Signal;HPM_P1;HPM_P2
2021/10/29 00:02:09;;;;;;;4.57;3.72;;;;;;;;;;5029011;28;20047;-51
2021/10/29 00:04:34;;;;;;;5.70;4.40;;;;;;;;;;5028091;28;20036;-48
2021/10/29 00:06:59;;;;;;;4.55;3.58;;;;;;;;;;5028294;28;20442;-47
2021/10/29 00:09:25;;;;;;;4.35;3.92;;;;;;;;;;5028594;28;20094;-48
2021/10/29 00:11:50;;;;;;;5.63;3.70;;;;;;;;;;5028567;28;20409;-48
2021/10/29 00:14:16;;;;;;;6.05;4.03;;;;;;;;;;5028447;28;20029;-48
2021/10/29 00:16:41;;;;;;;4.55;4.13;;;;;;;;;;5027196;28;20023;-48
2021/10/29 00:19:06;;;;;;;5.40;3.85;;;;;;;;;;5028517;28;20462;-48
2021/10/29 00:21:32;;;;;;;5.15;3.90;;;;;;;;;;5026852;28;20049;-48
2021/10/29 00:23:57;;;;;;;4.53;4.07;;;;;;;;;;5028565;28;20403;-49
2021/10/29 00:26:23;;;;;;;4.07;3.70;;;;;;;;;;5028172;28;20029;-47
2021/10/29 00:28:48;;;;;;;4.00;3.50;;;;;;;;;;5028462;28;20030;-47
2021/10/29 00:31:14;;;;;;;4.15;3.60;;;;;;;;;;5027093;28;20025;-47
2021/10/29 00:33:39;;;;;;;4.65;3.78;;;;;;;;;;5028448;28;20555;-49
2021/10/29 00:36:05;;;;;;;3.90;3.35;;;;;;;;;;5026916;28;20478;-48
2021/10/29 00:38:30;;;;;;;4.10;3.70;;;;;;;;;;5027828;28;20018;-47
2021/10/29 00:40:56;;;;;;;4.10;3.70;;;;;;;;;;5028242;28;20073;-48
2021/10/29 00:43:21;;;;;;;5.57;3.55;;;;;;;;;;5028261;28;20096;-48
2021/10/29 00:45:47;;;;;;;4.13;3.70;;;;;;;;;;5028104;28;20214;-47
2021/10/29 00:48:13;;;;;;;4.63;3.53;;;;;;;;;;5026819;28;20079;-48
2021/10/29 00:50:39;;;;;;;4.35;3.60;;;;;;;;;;5028196;28;20303;-48
2021/10/29 00:53:05;;;;;;;6.32;3.97;;;;;;;;;;5027993;28;20100;-48
2021/10/29 00:55:31;;;;;;;4.45;3.72;;;;;;;;;;5028224;28;20414;-47
2021/10/29 00:57:56;;;;;;;4.00;3.37;;;;;;;;;;5027839;28;20389;-47
2021/10/29 01:00:23;;;;;;;5.35;3.53;;;;;;;;;;5028078;28;20331;-48
2021/10/29 01:02:48;;;;;;;3.65;3.30;;;;;;;;;;5027828;28;20021;-48
2021/10/29 01:05:13;;;;;;;5.10;3.80;;;;;;;;;;5031691;28;20112;-48
2021/10/29 01:07:39;;;;;;;4.80;4.03;;;;;;;;;;5030964;28;20128;-48
2021/10/29 01:10:05;;;;;;;4.47;3.95;;;;;;;;;;5031494;28;20094;-48
2021/10/29 01:12:30;;;;;;;5.22;3.90;;;;;;;;;;5031313;28;20037;-48
2021/10/29 01:14:56;;;;;;;4.60;3.88;;;;;;;;;;5031479;28;20109;-47
2021/10/29 01:17:22;;;;;;;4.10;3.70;;;;;;;;;;5030503;28;20669;-47
2021/10/29 01:19:51;;;;;;;4.18;3.58;;;;;;;;;;5031509;28;20521;-49
2021/10/29 01:22:16;;;;;;;4.00;3.60;;;;;;;;;;5031415;28;20453;-49
2021/10/29 01:24:41;;;;;;;4.55;3.45;;;;;;;;;;5031140;28;20021;-47
2021/10/29 01:27:10;;;;;;;4.25;3.85;;;;;;;;;;5031050;28;20036;-47
2021/10/29 01:29:36;;;;;;;4.00;3.60;;;;;;;;;;5029557;28;20145;-47
2021/10/29 01:32:02;;;;;;;3.85;3.45;;;;;;;;;;5031173;28;20675;-47
2021/10/29 01:34:27;;;;;;;4.20;3.70;;;;;;;;;;5031168;28;20112;-47
2021/10/29 01:36:53;;;;;;;5.03;3.90;;;;;;;;;;5031381;28;20072;-47
2021/10/29 01:39:18;;;;;;;3.93;3.53;;;;;;;;;;5030795;28;20082;-48
2021/10/29 01:41:44;;;;;;;4.40;3.67;;;;;;;;;;5029662;28;20478;-47
2021/10/29 01:44:09;;;;;;;4.97;3.45;;;;;;;;;;5031103;28;20522;-48
2021/10/29 01:46:35;;;;;;;4.68;3.38;;;;;;;;;;5030867;28;20041;-47
2021/10/29 01:49:00;;;;;;;5.15;3.78;;;;;;;;;;5030685;28;20026;-47
2021/10/29 01:51:26;;;;;;;4.55;3.40;;;;;;;;;;5030609;28;20723;-48
2021/10/29 01:53:51;;;;;;;4.72;3.67;;;;;;;;;;5030674;28;20454;-48
2021/10/29 01:56:16;;;;;;;4.93;3.70;;;;;;;;;;5030762;28;20029;-49
2021/10/29 01:58:42;;;;;;;4.93;3.33;;;;;;;;;;5030685;28;20100;-48
2021/10/29 02:01:07;;;;;;;3.88;3.58;;;;;;;;;;5030684;28;20025;-48
2021/10/29 02:03:36;;;;;;;4.38;3.67;;;;;;;;;;5029142;28;20493;-48
2021/10/29 02:06:01;;;;;;;3.78;3.42;;;;;;;;;;5030603;28;20061;-48
2021/10/29 02:08:27;;;;;;;5.22;3.78;;;;;;;;;;5030452;28;20541;-50
2021/10/29 02:10:53;;;;;;;5.50;3.57;;;;;;;;;;5030165;28;20060;-49
2021/10/29 02:13:19;;;;;;;3.80;3.40;;;;;;;;;;5030174;28;20053;-48
2021/10/29 02:15:45;;;;;;;3.95;3.22;;;;;;;;;;5030394;28;20025;-50
2021/10/29 02:18:10;;;;;;;3.70;3.30;;;;;;;;;;5030162;28;20690;-48
2021/10/29 02:20:35;;;;;;;4.10;3.42;;;;;;;;;;5028289;28;20029;-48
2021/10/29 02:23:01;;;;;;;4.15;3.10;;;;;;;;;;5029614;28;20478;-49
2021/10/29 02:25:26;;;;;;;3.67;3.38;;;;;;;;;;5030094;28;20489;-47
2021/10/29 02:27:51;;;;;;;3.65;3.30;;;;;;;;;;5030266;28;20485;-48
2021/10/29 02:30:17;;;;;;;4.85;3.63;;;;;;;;;;5029754;28;20026;-47
2021/10/29 02:32:42;;;;;;;4.05;3.35;;;;;;;;;;5030154;28;20030;-48
2021/10/29 02:35:08;;;;;;;3.72;3.17;;;;;;;;;;5030165;28;20142;-47
2021/10/29 02:37:33;;;;;;;3.80;3.20;;;;;;;;;;5030037;28;20030;-48
2021/10/29 02:39:59;;;;;;;4.97;3.30;;;;;;;;;;5028778;28;20044;-49
2021/10/29 02:42:24;;;;;;;4.63;3.50;;;;;;;;;;5030146;28;20078;-47
2021/10/29 02:44:50;;;;;;;3.63;3.15;;;;;;;;;;5030033;28;20025;-51
2021/10/29 02:47:15;;;;;;;4.75;3.53;;;;;;;;;;5029825;28;20513;-49
2021/10/29 02:49:40;;;;;;;4.40;3.25;;;;;;;;;;5030085;28;20458;-48
2021/10/29 02:52:06;;;;;;;4.72;3.10;;;;;;;;;;5030202;28;20026;-48
2021/10/29 02:54:31;;;;;;;3.63;3.20;;;;;;;;;;5029480;28;20086;-49
2021/10/29 02:56:57;;;;;;;4.45;3.33;;;;;;;;;;5029958;28;20645;-50
2021/10/29 02:59:22;;;;;;;4.65;4.03;;;;;;;;;;5029747;28;20405;-49
2021/10/29 03:01:47;;;;;;;4.40;3.40;;;;;;;;;;5029704;28;20025;-49
2021/10/29 03:04:13;;;;;;;3.72;3.40;;;;;;;;;;5029151;28;20089;-48
2021/10/29 03:06:38;;;;;;;4.22;3.60;;;;;;;;;;5029894;28;20034;-48
2021/10/29 03:09:04;;;;;;;4.07;3.38;;;;;;;;;;5029039;28;20061;-50
2021/10/29 03:11:29;;;;;;;3.50;3.20;;;;;;;;;;5029461;28;20136;-47
2021/10/29 03:13:54;;;;;;;4.60;3.75;;;;;;;;;;5029379;28;20036;-47
2021/10/29 03:16:20;;;;;;;4.20;3.17;;;;;;;;;;5029284;28;20044;-47
2021/10/29 03:18:45;;;;;;;3.70;3.35;;;;;;;;;;5029582;28;20022;-47
2021/10/29 03:21:10;;;;;;;3.85;3.25;;;;;;;;;;5029543;28;20014;-48
2021/10/29 03:23:36;;;;;;;3.65;3.22;;;;;;;;;;5029413;28;20104;-48
2021/10/29 03:26:01;;;;;;;5.68;3.70;;;;;;;;;;5027032;28;20090;-48
2021/10/29 03:28:27;;;;;;;4.63;3.55;;;;;;;;;;5029388;28;20530;-47
2021/10/29 03:30:52;;;;;;;3.75;3.35;;;;;;;;;;5029112;28;20030;-49
2021/10/29 03:33:17;;;;;;;3.78;3.22;;;;;;;;;;5029367;28;20183;-47
2021/10/29 03:35:43;;;;;;;5.32;3.35;;;;;;;;;;5028784;28;20465;-48
2021/10/29 03:38:37;;;;;;;4.70;3.10;;;;;;;;;;5029222;28;20053;-48
2021/10/29 03:41:01;;;;;;;3.35;3.03;;;;;;;;;;5068621;22;20072;-38
2021/10/29 03:46:21;;;;;;;3.75;3.30;;;;;;;;;;4970621;28;20035;-38
2021/10/29 03:51:24;;;;;;;3.35;2.92;;;;;;;;;;4970867;28;20065;-38
2021/10/29 03:56:22;;;;;;;3.90;3.15;;;;;;;;;;4970815;28;20468;-39
2021/10/29 03:58:48;;;;;;;3.28;2.92;;;;;;;;;;4969363;28;20037;-38
2021/10/29 04:01:14;;;;;;;3.83;3.42;;;;;;;;;;4974998;28;20026;-38
2021/10/29 04:03:39;;;;;;;3.22;2.92;;;;;;;;;;4954643;28;20033;-38
2021/10/29 04:06:05;;;;;;;3.90;3.45;;;;;;;;;;4943762;28;20039;-38
2021/10/29 04:08:31;;;;;;;3.33;3.03;;;;;;;;;;4961394;28;20027;-38
2021/10/29 04:10:57;;;;;;;3.55;3.00;;;;;;;;;;4969757;28;20117;-38
2021/10/29 04:13:23;;;;;;;3.53;3.13;;;;;;;;;;4970711;28;20455;-38
2021/10/29 04:15:48;;;;;;;3.47;3.13;;;;;;;;;;4970333;28;20051;-37
2021/10/29 04:18:13;;;;;;;3.47;3.17;;;;;;;;;;4968866;28;20038;-38
2021/10/29 04:20:39;;;;;;;4.03;3.13;;;;;;;;;;4970262;28;20513;-38
2021/10/29 04:23:04;;;;;;;3.60;3.30;;;;;;;;;;4993627;28;20588;-38
2021/10/29 04:25:30;;;;;;;3.50;3.10;;;;;;;;;;5031351;28;20075;-38
2021/10/29 04:27:59;;;;;;;3.20;2.70;;;;;;;;;;5031401;28;20025;-38
2021/10/29 04:30:26;;;;;;;3.90;3.15;;;;;;;;;;5049578;28;20033;-38
2021/10/29 04:32:51;;;;;;;3.97;3.10;;;;;;;;;;5050963;28;20072;-37
2021/10/29 04:35:17;;;;;;;3.75;3.00;;;;;;;;;;5051455;28;20052;-38
2021/10/29 04:37:43;;;;;;;3.95;3.03;;;;;;;;;;5051247;28;20104;-37
2021/10/29 04:40:08;;;;;;;5.20;3.10;;;;;;;;;;5052860;28;20052;-38
2021/10/29 04:42:35;;;;;;;3.65;3.10;;;;;;;;;;5051411;28;20262;-38
2021/10/29 04:45:00;;;;;;;4.70;3.47;;;;;;;;;;5051562;28;20024;-38
2021/10/29 04:47:26;;;;;;;4.70;3.28;;;;;;;;;;5051092;28;20040;-38
2021/10/29 04:49:51;;;;;;;3.38;3.08;;;;;;;;;;5049608;28;20055;-38
2021/10/29 04:52:16;;;;;;;4.55;3.40;;;;;;;;;;5049548;28;20032;-37
2021/10/29 04:54:42;;;;;;;3.78;3.05;;;;;;;;;;5051213;28;20064;-38
2021/10/29 04:57:07;;;;;;;4.20;2.88;;;;;;;;;;5051112;28;20024;-36
2021/10/29 04:59:35;;;;;;;5.32;3.75;;;;;;;;;;5050778;28;20025;-38
2021/10/29 05:02:00;;;;;;;3.97;3.28;;;;;;;;;;5050985;28;20036;-38
2021/10/29 05:04:25;;;;;;;4.40;3.00;;;;;;;;;;5051009;28;20112;-38
2021/10/29 05:06:51;;;;;;;3.45;3.10;;;;;;;;;;5050909;28;20082;-37
2021/10/29 05:09:16;;;;;;;3.47;3.00;;;;;;;;;;5049630;28;20025;-37
2021/10/29 05:11:41;;;;;;;3.20;2.85;;;;;;;;;;5049548;28;20038;-37
2021/10/29 05:14:07;;;;;;;4.13;3.50;;;;;;;;;;5051031;28;20036;-38
2021/10/29 05:16:32;;;;;;;3.45;2.97;;;;;;;;;;5055653;28;20036;-38
2021/10/29 05:18:57;;;;;;;4.15;3.28;;;;;;;;;;5050791;28;20033;-38
2021/10/29 05:21:23;;;;;;;3.83;3.53;;;;;;;;;;5050822;28;20028;-38
2021/10/29 05:23:48;;;;;;;3.20;2.90;;;;;;;;;;5050616;28;20028;-38
2021/10/29 05:26:13;;;;;;;4.60;3.45;;;;;;;;;;5050735;28;20037;-38
2021/10/29 05:28:39;;;;;;;3.47;3.17;;;;;;;;;;5049266;28;20039;-38
2021/10/29 05:31:05;;;;;;;3.88;2.83;;;;;;;;;;5038352;28;20432;-37
2021/10/29 05:33:30;;;;;;;4.50;3.13;;;;;;;;;;5051039;28;20061;-38
2021/10/29 05:35:56;;;;;;;4.72;3.78;;;;;;;;;;5049229;28;20068;-38
2021/10/29 05:38:22;;;;;;;3.28;2.80;;;;;;;;;;5050811;28;20021;-39
2021/10/29 05:40:48;;;;;;;4.45;3.10;;;;;;;;;;5050586;28;20041;-38
2021/10/29 05:43:13;;;;;;;3.50;3.20;;;;;;;;;;5050637;28;20120;-38
2021/10/29 05:45:38;;;;;;;3.65;3.08;;;;;;;;;;5050908;28;20044;-37
2021/10/29 05:48:06;;;;;;;3.05;2.70;;;;;;;;;;5050706;28;20031;-37
2021/10/29 05:50:32;;;;;;;4.10;3.20;;;;;;;;;;5052801;28;20037;-38
2021/10/29 05:52:58;;;;;;;4.00;3.13;;;;;;;;;;5054297;28;20468;-39
2021/10/29 05:55:24;;;;;;;3.95;3.55;;;;;;;;;;5054407;28;20017;-38
2021/10/29 05:57:50;;;;;;;4.03;3.60;;;;;;;;;;5054161;28;20385;-39
2021/10/29 06:00:18;;;;;;;3.83;3.38;;;;;;;;;;5054299;28;20020;-38
2021/10/29 06:02:44;;;;;;;3.22;2.88;;;;;;;;;;5054035;28;20016;-37
2021/10/29 06:05:10;;;;;;;3.50;3.20;;;;;;;;;;5052310;28;20422;-38
2021/10/29 06:07:36;;;;;;;4.40;3.35;;;;;;;;;;5040410;28;20397;-39
2021/10/29 06:10:03;;;;;;;4.03;2.93;;;;;;;;;;5052645;28;20032;-39
2021/10/29 06:12:28;;;;;;;3.65;3.25;;;;;;;;;;5041652;28;20021;-39
2021/10/29 06:14:54;;;;;;;3.72;3.13;;;;;;;;;;5033943;28;20086;-38
2021/10/29 06:17:19;;;;;;;5.10;3.28;;;;;;;;;;5050065;28;20389;-38
2021/10/29 06:19:45;;;;;;;5.10;3.10;;;;;;;;;;5050618;28;20434;-38
2021/10/29 06:22:20;;;;;;;3.63;3.05;;;;;;;;;;5049757;28;20102;-38
2021/10/29 06:24:47;;;;;;;3.13;2.80;;;;;;;;;;5038431;28;20441;-38
2021/10/29 06:29:44;;;;;;;3.28;2.97;;;;;;;;;;5050708;28;20036;-38
2021/10/29 06:32:10;;;;;;;3.55;3.13;;;;;;;;;;5054539;28;20021;-38
2021/10/29 06:34:35;;;;;;;3.15;2.80;;;;;;;;;;5050193;28;20578;-38
2021/10/29 06:37:05;;;;;;;3.28;2.97;;;;;;;;;;5044352;28;20027;-38
2021/10/29 06:39:31;;;;;;;4.03;2.80;;;;;;;;;;5051576;28;20104;-39
2021/10/29 06:41:57;;;;;;;5.65;2.72;;;;;;;;;;5053571;28;20060;-39
2021/10/29 06:47:33;;;;;;;3.65;2.97;;;;;;;;;;5053502;28;20048;-38
2021/10/29 07:00:51;;;;;;;2.80;2.53;;;;;;;;;;5049202;28;20040;-39
2021/10/29 07:11:42;;;;;;;2.90;2.70;;;;;;;;;;5048859;28;20309;-38
2021/10/29 07:41:26;;;;;;;4.13;3.65;;;;;;;;;;5054299;28;20048;-39
2021/10/29 07:44:00;;;;;;;4.88;4.00;;;;;;;;;;5050747;28;20032;-39
2021/10/29 07:46:25;;;;;;;4.15;3.38;;;;;;;;;;5054313;28;20563;-39
2021/10/29 07:48:51;;;;;;;4.07;3.70;;;;;;;;;;5049785;28;20060;-38
2021/10/29 07:51:17;;;;;;;4.57;4.13;;;;;;;;;;5048558;28;20381;-39
2021/10/29 07:53:43;;;;;;;4.37;3.90;;;;;;;;;;5039058;28;20087;-39
2021/10/29 07:56:08;;;;;;;4.35;3.90;;;;;;;;;;5043149;28;20029;-39
2021/10/29 07:58:34;;;;;;;4.60;3.28;;;;;;;;;;5047776;28;20039;-39
2021/10/29 08:01:00;;;;;;;4.30;3.20;;;;;;;;;;5051448;28;20106;-40
2021/10/29 08:03:26;;;;;;;3.92;3.40;;;;;;;;;;5049876;28;20025;-40
2021/10/29 08:13:37;;;;;;;12.52;7.68;;;;;;;;;;5822181;22;20056;-47
2021/10/29 08:16:04;;;;;;;20.90;6.43;;;;;;;;;;5065484;28;20039;-45
2021/10/29 08:18:30;;;;;;;14.52;7.57;;;;;;;;;;5063101;28;20020;-46
2021/10/29 08:20:56;;;;;;;18.33;6.57;;;;;;;;;;5065392;28;20086;-48
2021/10/29 08:23:22;;;;;;;13.68;6.78;;;;;;;;;;5063635;28;20475;-47
2021/10/29 08:25:48;;;;;;;14.65;7.03;;;;;;;;;;5071149;28;20024;-46
2021/10/29 08:28:13;;;;;;;11.20;7.30;;;;;;;;;;5069005;28;20025;-43
2021/10/29 08:30:38;;;;;;;16.27;7.37;;;;;;;;;;5050932;28;20043;-45
2021/10/29 08:33:04;;;;;;;12.67;7.47;;;;;;;;;;5025938;28;20535;-47
2021/10/29 08:35:29;;;;;;;9.33;6.90;;;;;;;;;;5058048;28;20052;-46
2021/10/29 08:37:54;;;;;;;11.02;6.82;;;;;;;;;;5068127;28;20020;-45
2021/10/29 08:40:21;;;;;;;12.03;7.50;;;;;;;;;;5066826;28;20116;-45
2021/10/29 08:42:47;;;;;;;12.05;6.38;;;;;;;;;;5069460;28;20016;-46
2021/10/29 08:45:13;;;;;;;12.10;6.53;;;;;;;;;;5065017;28;20425;-46
2021/10/29 08:47:39;;;;;;;11.70;6.60;;;;;;;;;;5067433;28;20037;-47
2021/10/29 08:50:06;;;;;;;14.07;6.25;;;;;;;;;;5065808;28;20091;-46
2021/10/29 08:52:32;;;;;;;9.68;5.95;;;;;;;;;;5067989;28;20389;-46
2021/10/29 08:54:58;;;;;;;9.77;5.70;;;;;;;;;;5056054;28;20029;-45
2021/10/29 08:57:25;;;;;;;10.20;5.60;;;;;;;;;;5068447;28;20104;-45
2021/10/29 08:59:52;;;;;;;11.73;6.22;;;;;;;;;;5068874;28;20695;-44
2021/10/29 09:04:51;;;;;;;10.73;5.97;;;;;;;;;;5066880;28;20035;-46
2021/10/29 09:32:34;;;;;;;9.52;5.22;;;;;;;18.93;nan;100453.47;5073444;28;20081;-34
2021/10/29 09:35:15;;;;;;;10.23;5.47;;;;;;;18.92;nan;100467.91;5074243;28;20025;-34
2021/10/29 09:38:01;;;;;;;11.05;5.60;;;;;;;18.92;nan;100460.69;5072860;28;20032;-34
2021/10/29 09:40:32;;;;;;;13.23;5.53;;;;;;;18.93;nan;100470.50;5072627;28;20283;-34
2021/10/29 09:43:13;;;;;;;11.60;5.18;;;;;;;18.94;nan;100471.34;5072166;28;20046;-34
2021/10/29 09:45:50;;;;;;;12.68;5.18;;;;;;;18.93;nan;100469.63;5072031;28;20085;-35
2021/10/29 09:48:23;;;;;;;10.73;4.85;;;;;;;18.91;nan;100466.19;5072353;28;20103;-34
2021/10/29 09:50:52;;;;;;;7.82;4.50;;;;;;;18.91;nan;100455.41;5072113;28;20746;-34
2021/10/29 09:53:59;;;;;;;9.90;4.68;;;;;;;18.87;nan;100464.72;5067834;28;20118;-35
2021/10/29 09:58:56;;;;;;;9.98;5.15;;;;;;;18.89;nan;100463.63;5073088;28;20020;-35
2021/10/29 10:01:24;;;;;;;6.13;4.53;;;;;;;18.89;nan;100473.56;5072818;28;20032;-34
2021/10/29 10:03:51;;;;;;;8.77;4.47;;;;;;;18.89;nan;100469.03;5064400;28;20097;-35
2021/10/29 10:06:21;;;;;;;;;;;;;;;18.91;nan;100467.06;5051192;28;20025;-34
2021/10/29 10:08:46;;;;;;;8.77;4.55;;;;;;;18.93;nan;100464.25;5054025;28;19912;-34
2021/10/29 10:11:14;;;;;;;7.13;4.03;;;;;;;18.92;nan;100468.75;5073193;28;20078;-35
2021/10/29 10:13:41;;;;;;;6.47;4.38;;;;;;;19.01;nan;100463.66;5060259;28;20141;-35
2021/10/29 10:16:08;;;;;;;9.88;5.18;;;;;;;19.09;nan;100463.91;5067911;28;20063;-35
2021/10/29 10:18:34;;;;;;;11.25;4.68;;;;;;;19.10;nan;100460.22;5073581;28;20028;-37
2021/10/29 10:21:03;;;;;;;11.57;4.40;;;;;;;19.15;nan;100463.38;5072570;28;20068;-38
2021/10/29 10:23:38;;;;;;;8.93;4.53;;;;;;;19.15;nan;100452.59;5063893;28;20020;-37
2021/10/29 10:48:33;;;;;;;14.13;4.57;;;;;;;19.15;nan;100420.28;4989716;28;20022;-47
2021/10/29 10:54:04;;;;;;;10.85;4.35;;;;;;;19.20;nan;100401.91;4968400;28;20077;-47
2021/10/29 11:02:35;;;;;;;14.13;4.57;;;;;;;19.20;nan;100397.38;4981442;28;20117;-48
2021/10/29 11:10:19;;;;;;;20.40;5.18;;;;;;;19.21;nan;100391.00;4990927;28;20022;-49
2021/10/29 11:12:46;;;;;;;17.88;5.13;;;;;;;19.22;nan;100386.47;4989804;28;20043;-43
2021/10/29 11:15:13;;;;;;;17.38;4.72;;;;;;;19.26;nan;100390.63;4990511;28;20050;-45
2021/10/29 11:17:50;;;;;;;16.67;4.60;;;;;;;19.27;nan;100392.34;4972399;28;20030;-45
2021/10/29 11:20:44;;;;;;;13.55;4.45;;;;;;;19.28;nan;100377.91;4988953;28;20042;-44
2021/10/29 11:23:32;;;;;;;13.77;4.65;;;;;;;19.30;nan;100380.44;5067197;28;20421;-44
2021/10/29 11:26:01;;;;;;;14.88;4.75;;;;;;;19.33;nan;100381.06;5070345;28;20032;-45
2021/10/29 11:28:42;;;;;;;12.55;4.55;;;;;;;19.36;nan;100366.47;5070506;28;20031;-46
2021/10/29 11:31:14;;;;;;;13.27;4.88;;;;;;;19.37;nan;100355.56;5070540;28;20024;-44
2021/10/29 11:33:45;;;;;;;12.77;4.30;;;;;;;19.38;nan;100349.19;5071588;28;20017;-46
2021/10/29 11:36:36;;;;;;;15.13;4.25;;;;;;;19.40;nan;100341.84;5071689;28;20073;-49
2021/10/29 11:39:06;;;;;;;9.80;4.75;;;;;;;19.43;nan;100343.44;5059774;28;20074;-47
2021/10/29 11:41:34;;;;;;;9.38;3.58;;;;;;;19.44;nan;100334.34;5072271;28;20023;-45
2021/10/29 11:44:05;;;;;;;13.38;4.72;;;;;;;19.46;nan;100335.94;5071412;28;20025;-43
2021/10/29 11:46:32;;;;;;;9.75;3.78;;;;;;;19.45;nan;100326.13;5071526;28;20035;-46
2021/10/29 11:49:10;;;;;;;10.77;4.18;;;;;;;19.46;nan;100333.25;5071930;28;20032;-45
2021/10/29 11:51:38;;;;;;;11.98;4.18;;;;;;;19.44;nan;100323.56;5071837;28;20085;-46
2021/10/29 11:56:47;;;;;;;12.27;4.28;;;;;;;19.46;nan;100310.84;5071975;28;20042;-46
2021/10/29 12:07:26;;;;;;;10.43;3.83;;;;;;;19.58;nan;100276.59;5066840;28;20093;-45
2021/10/29 12:09:56;;;;;;;10.65;4.05;;;;;;;19.58;nan;100263.13;5071286;28;20100;-46
2021/10/29 12:12:26;;;;;;;9.35;3.83;;;;;;;19.58;nan;100268.50;5071589;28;20485;-47
2021/10/29 12:14:54;;;;;;;9.80;3.83;;;;;;;19.57;nan;100259.53;5069072;28;20045;-44
2021/10/29 12:17:30;;;;;;;4.93;3.50;;;;;;;19.58;nan;100255.03;5070588;28;20507;-46
2021/10/29 12:19:59;;;;;;;10.10;4.30;;;;;;;19.56;nan;100251.59;5071345;28;20036;-46
2021/10/29 12:22:38;;;;;;;11.70;3.97;;;;;;;19.57;nan;100254.16;5071186;28;20028;-44
2021/10/29 12:27:55;;;;;;;8.10;3.42;;;;;;;19.59;nan;100254.03;5071667;28;20507;-49
2021/10/29 12:30:29;;;;;;;11.52;4.20;;;;;;;19.61;nan;100260.13;5071450;28;20024;-45
2021/10/29 13:03:24;;;;;;;5.88;3.03;;;;;;;19.72;nan;100215.13;5068014;28;20032;-43
2021/10/29 13:05:54;;;;;;;4.72;2.75;;;;;;;19.74;nan;100222.25;5057006;28;20047;-44
2021/10/29 13:08:22;;;;;;;5.95;3.00;;;;;;;19.75;nan;100214.00;5075050;28;20404;-44
2021/10/29 13:10:53;;;;;;;5.95;2.88;;;;;;;19.76;nan;100209.47;5069122;28;20032;-48
2021/10/29 13:14:05;;;;;;;10.85;2.97;;;;;;;19.77;nan;100211.19;5055344;28;20132;-47
2021/10/29 13:16:08;;;;;;;6.53;3.45;;;;;;;19.79;nan;100201.97;5059197;28;20404;-48
2021/10/29 13:51:23;;;;;;;5.10;3.10;;;;;;;19.96;nan;100195.13;4950377;28;20418;-50
2021/10/29 13:57:18;;;;;;;5.82;2.80;;;;;;;19.98;nan;100208.47;4999135;28;20037;-44
2021/10/29 13:59:34;;;;;;;5.75;2.58;;;;;;;19.96;nan;100205.91;5003518;28;20045;-45
2021/10/29 14:32:16;;;;;;;4.17;2.33;;;;;;;19.86;nan;100168.09;4952350;29;20035;-43
2021/10/29 14:34:45;;;;;;;3.75;2.30;;;;;;;19.83;nan;100157.56;4934009;29;20044;-44
2021/10/29 14:42:47;;;;;;;4.60;2.50;;;;;;;19.81;nan;100170.34;4991197;28;20837;-47
2021/10/29 14:45:57;;;;;;;5.28;2.42;;;;;;;19.80;nan;100174.00;4990290;28;20036;-44
2021/10/29 14:48:19;;;;;;;3.70;2.60;;;;;;;19.81;nan;100164.09;4987181;28;20030;-49
2021/10/29 14:51:11;;;;;;;3.22;2.20;;;;;;;19.82;nan;100165.78;5025299;28;20037;-46
2021/10/29 15:07:10;;;;;;;3.93;2.40;;;;;;;19.77;nan;100163.50;5030025;28;20516;-49
2021/10/29 15:15:45;;;;;;;4.63;2.22;;;;;;;19.73;nan;100172.84;5047707;28;20090;-46
2021/10/29 15:26:58;;;;;;;4.43;2.83;;;;;;;19.70;nan;100167.72;4990828;28;20477;-45
2021/10/29 15:29:38;;;;;;;5.25;2.58;;;;;;;19.68;nan;100170.53;4990876;28;20073;-46
2021/10/29 15:45:38;;;;;;;3.40;2.40;;;;;;;19.63;nan;100174.63;4971238;28;20103;-46
2021/10/29 15:48:09;;;;;;;3.50;3.03;;;;;;;19.62;nan;100181.03;4977884;28;20388;-47
2021/10/29 15:50:36;;;;;;;4.93;2.20;;;;;;;19.62;nan;100186.41;4989914;28;20042;-46
2021/10/29 15:53:04;;;;;;;5.43;2.47;;;;;;;19.61;nan;100184.66;4989625;28;20443;-45
2021/10/29 16:03:30;;;;;;;3.67;2.30;;;;;;;19.59;nan;100175.84;4989396;28;20057;-46
2021/10/29 16:19:46;;;;;;;2.55;2.22;;;;;;;19.54;nan;100199.66;4912621;29;20513;-45
2021/10/29 16:22:20;;;;;;;2.97;2.63;;;;;;;19.55;nan;100204.06;4913020;29;20031;-45
2021/10/29 16:25:30;;;;;;;3.53;2.30;;;;;;;19.53;nan;100197.94;4896909;29;20047;-44
2021/10/29 16:30:04;;;;;;;4.05;2.13;;;;;;;19.53;nan;100181.75;4912486;29;20139;-45
2021/10/29 16:32:51;;;;;;;4.07;2.47;;;;;;;19.53;nan;100181.75;4911627;29;20040;-44
2021/10/29 16:35:16;;;;;;;5.93;2.53;;;;;;;19.50;nan;100180.22;4912840;29;20687;-47
2021/10/29 16:37:42;;;;;;;4.15;2.25;;;;;;;19.50;nan;100174.81;4919458;28;20213;-46
2021/10/29 16:40:08;;;;;;;4.17;2.20;;;;;;;19.50;nan;100172.13;4952895;28;20543;-45
2021/10/29 16:42:34;;;;;;;4.40;2.40;;;;;;;19.50;nan;100174.81;4966257;28;20888;-45
2021/10/29 16:44:59;;;;;;;4.53;2.30;;;;;;;19.49;nan;100173.94;4969644;28;20118;-45
2021/10/29 16:47:27;;;;;;;6.10;2.73;;;;;;;19.51;nan;100181.06;4967075;28;20495;-46
2021/10/29 16:49:53;;;;;;;3.17;2.40;;;;;;;19.51;nan;100189.16;4962845;28;20454;-47
2021/10/29 16:52:18;;;;;;;3.67;2.33;;;;;;;19.49;nan;100195.50;4970007;28;20599;-46
2021/10/29 16:54:44;;;;;;;2.90;2.30;;;;;;;19.52;nan;100212.41;4970133;28;20033;-45
2021/10/29 16:57:10;;;;;;;4.57;2.50;;;;;;;19.53;nan;100225.75;5043246;28;20048;-46
2021/10/29 16:59:35;;;;;;;3.03;2.40;;;;;;;19.53;nan;100227.59;5049648;28;20474;-45
2021/10/29 17:02:01;;;;;;;4.60;2.97;;;;;;;19.53;nan;100224.91;5050247;28;20051;-45
2021/10/29 17:04:26;;;;;;;4.07;2.33;;;;;;;19.53;nan;100224.91;5050580;28;20021;-45
2021/10/29 17:06:52;;;;;;;4.73;2.30;;;;;;;19.53;nan;100227.59;5051040;28;20447;-45
2021/10/29 17:09:18;;;;;;;4.27;2.60;;;;;;;19.53;nan;100224.91;5032941;28;20083;-46
2021/10/29 17:11:43;;;;;;;2.63;2.30;;;;;;;19.53;nan;100224.91;5049474;28;20025;-47
2021/10/29 17:14:09;;;;;;;6.17;2.63;;;;;;;19.53;nan;100208.72;5057852;28;20123;-45
2021/10/29 17:16:35;;;;;;;2.67;2.33;;;;;;;19.53;nan;100206.88;5070309;28;20214;-46
2021/10/29 17:19:01;;;;;;;3.20;2.63;;;;;;;19.54;nan;100210.44;5070276;28;20477;-46
2021/10/29 17:21:26;;;;;;;6.70;2.57;;;;;;;19.55;nan;100209.47;5070399;28;20028;-44
2021/10/29 17:23:52;;;;;;;3.13;2.27;;;;;;;19.54;nan;100210.44;5070428;28;20032;-45
2021/10/29 17:26:17;;;;;;;2.77;2.40;;;;;;;19.52;nan;100202.47;5070990;28;20036;-45
2021/10/29 17:28:43;;;;;;;3.37;2.30;;;;;;;19.54;nan;100202.38;5070817;28;20028;-46
2021/10/29 17:31:09;;;;;;;3.80;2.70;;;;;;;19.54;nan;100210.44;5070863;28;20494;-47
2021/10/29 17:33:34;;;;;;;3.93;2.70;;;;;;;19.53;nan;100212.25;5052590;28;20028;-46
2021/10/29 17:36:00;;;;;;;3.23;2.43;;;;;;;19.54;nan;100221.22;5070954;28;20034;-49
2021/10/29 17:38:25;;;;;;;4.97;3.00;;;;;;;19.54;nan;100221.22;5052866;28;20116;-46
2021/10/29 17:40:51;;;;;;;8.17;2.77;;;;;;;19.54;nan;100216.69;5070682;28;20060;-44
2021/10/29 17:43:16;;;;;;;3.47;2.43;;;;;;;19.57;nan;100229.03;5070814;28;20106;-45
2021/10/29 17:45:44;;;;;;;6.87;3.23;;;;;;;19.54;nan;100237.41;5055025;28;20032;-48
2021/10/29 17:48:09;;;;;;;4.65;2.60;;;;;;;19.54;nan;100237.41;5074426;28;20025;-45
2021/10/29 17:50:35;;;;;;;3.03;2.30;;;;;;;19.55;nan;100249.91;5074350;28;20108;-47
2021/10/29 17:53:01;;;;;;;3.95;2.55;;;;;;;19.56;nan;100246.22;5074119;28;20033;-44
2021/10/29 17:55:31;;;;;;;5.47;2.70;;;;;;;19.55;nan;100236.41;5074362;28;20029;-46
2021/10/29 17:57:56;;;;;;;3.65;2.60;;;;;;;19.56;nan;100244.34;5074516;28;20404;-46
2021/10/29 18:00:22;;;;;;;3.17;2.17;;;;;;;19.55;nan;100249.91;5074161;28;20020;-46
2021/10/29 18:02:47;;;;;;;5.10;2.60;;;;;;;19.55;nan;100248.06;5074170;28;20013;-47
2021/10/29 18:05:16;;;;;;;2.57;2.23;;;;;;;19.58;nan;100249.63;5074124;28;20020;-46
2021/10/29 18:07:42;;;;;;;2.55;2.35;;;;;;;19.57;nan;100251.47;5073909;28;20433;-46
2021/10/29 18:10:09;;;;;;;4.57;2.53;;;;;;;19.58;nan;100255.88;5056058;28;20108;-46
2021/10/29 18:12:35;;;;;;;3.40;2.25;;;;;;;19.58;nan;100265.81;5073900;28;20391;-45
2021/10/29 18:15:01;;;;;;;5.17;2.57;;;;;;;19.58;nan;100257.72;5073599;28;20044;-47
2021/10/29 18:17:26;;;;;;;2.77;2.17;;;;;;;19.56;nan;100251.59;5074031;28;20029;-45
2021/10/29 18:19:52;;;;;;;8.87;2.60;;;;;;;19.66;nan;100263.34;5072954;28;20020;-47
2021/10/29 18:22:17;;;;;;;7.53;3.30;;;;;;;19.72;nan;100252.03;5053991;28;20068;-42
2021/10/29 18:24:43;;;;;;;4.37;2.53;;;;;;;19.72;nan;100254.72;5070137;28;20032;-46
2021/10/29 18:27:12;;;;;;;6.60;2.60;;;;;;;19.78;nan;100246.13;5038208;28;20017;-44
2021/10/29 18:29:39;;;;;;;7.97;3.15;;;;;;;19.80;nan;100244.13;5055486;28;20025;-47
2021/10/29 18:32:06;;;;;;;10.30;2.47;;;;;;;19.75;nan;100254.47;5054827;28;20032;-45
2021/10/29 18:34:32;;;;;;;;;;;;;;;19.70;nan;100254.88;5073051;28;20020;-43
2021/10/29 18:36:58;;;;;;;5.88;2.67;;;;;;;19.68;nan;100247.88;5055143;28;20281;-43
2021/10/29 18:39:24;;;;;;;6.35;2.95;;;;;;;19.67;nan;100243.47;5036051;28;20025;-43